Buffalo, WY

6:38 PM MDT on March 29, 2017 (GMT -0600)
Buffalo | | Change Station
Active Advisory: Special Statement

Elev 4708 ft 44.34 °N, 106.70 °W | Updated 9 seconds ago

Clear
Clear
57.9 °F
Feels Like 57.9 °F
N
0.2
Wind Variable Wind from ENE
Gusts 2.5 mph

Today
High -- | Low -- °F
--% Chance of Precip.
Yesterday
High -- | Low -- °F
Precip. -- in
Pressure 29.86 in
Visibility 10.0 miles
Clouds Clear
Dew Point 32 °F
Humidity 38%
Rainfall 0.00 in
Snow Depth Not available.
6:52 AM 7:30 PM
Waxing Crescent, 5% visible
METAR KBYG 292353Z AUTO 09007KT 10SM CLR 14/M02 A2990 RMK AO2 SLP112 T01441022 10156 20128 58022
Pressure 29.86 in
Visibility 10.0 miles
Clouds Clear
Dew Point 32 °F
Humidity 38%
Rainfall 0.00 in
Snow Depth Not available.
6:52 AM 7:30 PM
Waxing Crescent, 5% visible
METAR KBYG 292353Z AUTO 09007KT 10SM CLR 14/M02 A2990 RMK AO2 SLP112 T01441022 10156 20128 58022

Get Your Daily Forecast Email!

Thanks for signing up!

Be on the lookout for a verification email in your inbox.

You'll start receiving severe weather alerts in your inbox..

×

10-Day Weather Forecast

Almanac

Astronomy

Mar. 29, 2017 Rise Set
Actual Time
Civil Twilight
Nautical Twilight
Astronomical Twilight
Moon
Length of Visible Light
Length of Day
Tomorrow will be .
, % of the Moon is Illuminated

Today's Extremes

State Highs State Lows

Community

WunderPhotos

Upload Photos

1,962,540 photos uploaded!

WunderBlog® & News

Nearby

Air Quality

  Air Quality AQ Index Pollutant
Not available.

Snow Depth

Station Depth Elevation

Earthquake Activity

City Distance Mag. Time & Date
Minimum magnitude displayed is 2.5.

Earthquake Activity

City Distance Mag. Time & Date
Minimum magnitude displayed is 2.5.

Coastal Water Temperatures

Place Temperature

Stations

Nearby Weather Stations

Station Location Temp. Windchill Dew Point Humidity Wind Precip. Elev Updated Type
                   

Watches & Warnings

Special Statement
Issued: 12:46 PM MDT Mar. 29, 2017 – National Weather Service

A cold rain is expected across the lower elevations of Johnson
County later Thursday evening through Friday evening. Rain amounts
of a quarter to one half inch are expected with locally higher
amounts. The foothills will likely see several inches of snow
above 6000 feet or so.

Stay tuned for frequent updates on this developing storm system.



1246 PM MDT Wed Mar 29 2017

A cold rain is expected across the lower elevations of Johnson
County later Thursday evening through Friday evening. Rain amounts
of a quarter to one half inch are expected with locally higher
amounts. The foothills will likely see several inches of snow
above 6000 feet or so.

Stay tuned for frequent updates on this developing storm system.